Newton, Illinois
Current Conditions -  °F | °C
As of 7:30 AM on Thursday 30 Oct 2014 (Local Time) from KOLY Reporting Station
Haze Haze  
Wind Chill: 34°   Ceiling: Unl
Heat Index: 34°   Visibility: 3mi
Dew Point: 32°   Wind: 0mph
Humidity: 93%   Direction: NA
Pressure: 30.18"   Gusts: NA
Location:  38.99°N, 88.16°W
Report Text: KOLY 301230Z AUTO 00000KT 3SM BR CLR 01/00 A3018 RMK AO2
Loading
Personal Weather Stations






























Interactive Weather Map
Tropical Storm Tracking
New forecast layout! Learn more

10-Day Weather Forecast

Advertisements
Track Severe Weather on mobile